East Berlin, Pennsylvania
Current Conditions -  °F | °C
As of 2:53 PM on Saturday 25 Oct 2014 (Local Time) from KTHV Reporting Station
Clear Clear  
Wind Chill: 69°   Ceiling: Unl
Heat Index: 69°   Visibility: 10mi
Dew Point: 42°   Wind: 14mph
Humidity: 38%   Direction: 260°W
Pressure: 29.78"   Gusts: 20mph
Location:  39.94°N, 76.98°W
Report Text: KTHV 251853Z AUTO 26012G17KT 10SM CLR 21/06 A2978 RMK AO2 SLP085 T02060056
Loading
Personal Weather Stations






























Interactive Weather Map
Tropical Storm Tracking
New forecast layout! Learn more

10-Day Weather Forecast

Advertisements
Track Severe Weather on mobile